Terminal Aerodrome Forecast
Issued by NWS Grand Forks, ND

Home | Current Version | Previous Version | Text Only | Print | Product List | Glossary On
Versions: 1 2 3 4 5 6 7 8 9 10 11 12 13 14 15 16
934
FTUS43 KFGF 262336
TAFFAR
TAF
KFAR 262336Z 2700/2724 35010KT P6SM FEW050
     FM270200 VRB04KT P6SM SKC
     FM271600 35006KT P6SM FEW050=

USA.gov is the U.S. government's official web portal to all federal, state and local government web resources and services.